sensor_id;sensor_type;location;lat;lon;timestamp;temperature;humidity
7206;DHT22;3644;53.480;10.004;2022-11-14T00:00:39;10.10;99.90
7206;DHT22;3644;53.480;10.004;2022-11-14T00:03:06;9.80;99.90
7206;DHT22;3644;53.480;10.004;2022-11-14T00:05:32;9.80;99.90
7206;DHT22;3644;53.480;10.004;2022-11-14T00:07:58;9.80;99.90
7206;DHT22;3644;53.480;10.004;2022-11-14T00:10:24;9.80;99.90
7206;DHT22;3644;53.480;10.004;2022-11-14T00:12:49;9.70;99.90
7206;DHT22;3644;53.480;10.004;2022-11-14T00:15:15;9.80;99.90
7206;DHT22;3644;53.480;10.004;2022-11-14T00:17:41;9.80;99.90
7206;DHT22;3644;53.480;10.004;2022-11-14T00:20:08;9.80;99.90
7206;DHT22;3644;53.480;10.004;2022-11-14T00:22:34;9.70;99.90
7206;DHT22;3644;53.480;10.004;2022-11-14T00:25:00;9.70;99.90
7206;DHT22;3644;53.480;10.004;2022-11-14T00:27:26;9.80;99.90
7206;DHT22;3644;53.480;10.004;2022-11-14T00:29:51;9.60;99.90
7206;DHT22;3644;53.480;10.004;2022-11-14T00:32:17;9.70;99.90
7206;DHT22;3644;53.480;10.004;2022-11-14T00:34:42;9.80;99.90
7206;DHT22;3644;53.480;10.004;2022-11-14T00:37:08;9.90;99.90
7206;DHT22;3644;53.480;10.004;2022-11-14T00:39:33;9.90;99.90
7206;DHT22;3644;53.480;10.004;2022-11-14T00:41:59;9.80;99.90
7206;DHT22;3644;53.480;10.004;2022-11-14T00:44:25;9.80;99.90
7206;DHT22;3644;53.480;10.004;2022-11-14T00:46:51;9.90;99.90
7206;DHT22;3644;53.480;10.004;2022-11-14T00:49:17;9.80;99.90
7206;DHT22;3644;53.480;10.004;2022-11-14T00:51:42;9.60;99.90
7206;DHT22;3644;53.480;10.004;2022-11-14T00:54:08;9.60;99.90
7206;DHT22;3644;53.480;10.004;2022-11-14T00:56:33;9.60;99.90
7206;DHT22;3644;53.480;10.004;2022-11-14T00:58:59;9.70;99.90
7206;DHT22;3644;53.480;10.004;2022-11-14T01:01:24;9.70;99.90
7206;DHT22;3644;53.480;10.004;2022-11-14T01:03:51;9.80;99.90
7206;DHT22;3644;53.480;10.004;2022-11-14T01:06:17;9.70;99.90
7206;DHT22;3644;53.480;10.004;2022-11-14T01:08:44;9.70;99.90
7206;DHT22;3644;53.480;10.004;2022-11-14T01:11:14;9.90;99.90
7206;DHT22;3644;53.480;10.004;2022-11-14T01:13:41;9.90;99.90
7206;DHT22;3644;53.480;10.004;2022-11-14T01:16:07;9.90;99.90
7206;DHT22;3644;53.480;10.004;2022-11-14T01:18:33;9.90;99.90
7206;DHT22;3644;53.480;10.004;2022-11-14T01:20:58;9.80;99.90
7206;DHT22;3644;53.480;10.004;2022-11-14T01:23:24;9.80;99.90
7206;DHT22;3644;53.480;10.004;2022-11-14T01:25:49;9.80;99.90
7206;DHT22;3644;53.480;10.004;2022-11-14T01:28:17;9.80;99.90
7206;DHT22;3644;53.480;10.004;2022-11-14T01:30:44;9.80;99.90
7206;DHT22;3644;53.480;10.004;2022-11-14T01:33:09;9.70;99.90
7206;DHT22;3644;53.480;10.004;2022-11-14T01:35:36;9.70;99.90
7206;DHT22;3644;53.480;10.004;2022-11-14T01:38:03;9.70;99.90
7206;DHT22;3644;53.480;10.004;2022-11-14T01:40:30;9.70;99.90
7206;DHT22;3644;53.480;10.004;2022-11-14T01:46:05;9.60;99.90
7206;DHT22;3644;53.480;10.004;2022-11-14T01:48:40;9.70;99.90
7206;DHT22;3644;53.480;10.004;2022-11-14T01:51:23;9.80;99.90
7206;DHT22;3644;53.480;10.004;2022-11-14T01:53:53;9.80;99.90
7206;DHT22;3644;53.480;10.004;2022-11-14T01:56:41;9.80;99.90
7206;DHT22;3644;53.480;10.004;2022-11-14T01:59:18;9.80;99.90
7206;DHT22;3644;53.480;10.004;2022-11-14T02:01:49;9.90;99.90
7206;DHT22;3644;53.480;10.004;2022-11-14T02:04:27;9.80;99.90
7206;DHT22;3644;53.480;10.004;2022-11-14T02:06:56;9.80;99.90
7206;DHT22;3644;53.480;10.004;2022-11-14T02:09:23;9.80;99.90
7206;DHT22;3644;53.480;10.004;2022-11-14T02:11:49;9.90;99.90
7206;DHT22;3644;53.480;10.004;2022-11-14T02:14:16;9.90;99.90
7206;DHT22;3644;53.480;10.004;2022-11-14T02:16:42;9.90;99.90
7206;DHT22;3644;53.480;10.004;2022-11-14T02:19:08;9.90;99.90
7206;DHT22;3644;53.480;10.004;2022-11-14T02:21:34;9.80;99.90
7206;DHT22;3644;53.480;10.004;2022-11-14T02:24:00;9.70;99.90
7206;DHT22;3644;53.480;10.004;2022-11-14T02:26:25;9.60;99.90
7206;DHT22;3644;53.480;10.004;2022-11-14T02:28:52;9.70;99.90
7206;DHT22;3644;53.480;10.004;2022-11-14T02:31:17;9.70;99.90
7206;DHT22;3644;53.480;10.004;2022-11-14T02:33:43;9.80;99.90
7206;DHT22;3644;53.480;10.004;2022-11-14T02:36:09;9.90;99.90
7206;DHT22;3644;53.480;10.004;2022-11-14T02:38:35;9.80;99.90
7206;DHT22;3644;53.480;10.004;2022-11-14T02:41:01;9.90;99.90
7206;DHT22;3644;53.480;10.004;2022-11-14T02:43:27;9.90;99.90
7206;DHT22;3644;53.480;10.004;2022-11-14T02:45:52;9.90;99.90
7206;DHT22;3644;53.480;10.004;2022-11-14T02:48:18;9.90;99.90
7206;DHT22;3644;53.480;10.004;2022-11-14T02:50:43;10.00;99.90
7206;DHT22;3644;53.480;10.004;2022-11-14T02:53:09;9.90;99.90
7206;DHT22;3644;53.480;10.004;2022-11-14T02:55:34;9.90;99.90
7206;DHT22;3644;53.480;10.004;2022-11-14T02:58:00;9.90;99.90
7206;DHT22;3644;53.480;10.004;2022-11-14T03:00:26;10.00;99.90
7206;DHT22;3644;53.480;10.004;2022-11-14T03:02:52;9.90;99.90
7206;DHT22;3644;53.480;10.004;2022-11-14T03:05:18;9.90;99.90
7206;DHT22;3644;53.480;10.004;2022-11-14T03:07:44;9.90;99.90
7206;DHT22;3644;53.480;10.004;2022-11-14T03:10:10;9.90;99.90
7206;DHT22;3644;53.480;10.004;2022-11-14T03:12:36;9.80;99.90
7206;DHT22;3644;53.480;10.004;2022-11-14T03:15:05;9.80;99.90
7206;DHT22;3644;53.480;10.004;2022-11-14T03:17:32;9.70;99.90
7206;DHT22;3644;53.480;10.004;2022-11-14T03:19:58;9.70;99.90
7206;DHT22;3644;53.480;10.004;2022-11-14T03:22:24;9.70;99.90
7206;DHT22;3644;53.480;10.004;2022-11-14T03:24:49;9.80;99.90
7206;DHT22;3644;53.480;10.004;2022-11-14T03:27:15;9.80;99.90
7206;DHT22;3644;53.480;10.004;2022-11-14T03:29:40;9.80;99.90
7206;DHT22;3644;53.480;10.004;2022-11-14T03:32:06;9.90;99.90
7206;DHT22;3644;53.480;10.004;2022-11-14T03:34:31;9.90;99.90
7206;DHT22;3644;53.480;10.004;2022-11-14T03:36:57;9.80;99.90
7206;DHT22;3644;53.480;10.004;2022-11-14T03:39:22;10.00;99.90
7206;DHT22;3644;53.480;10.004;2022-11-14T03:41:48;9.80;99.90
7206;DHT22;3644;53.480;10.004;2022-11-14T03:44:13;9.70;99.90
7206;DHT22;3644;53.480;10.004;2022-11-14T03:46:39;9.70;99.90
7206;DHT22;3644;53.480;10.004;2022-11-14T03:49:04;9.70;99.90
7206;DHT22;3644;53.480;10.004;2022-11-14T03:51:30;9.70;99.90
7206;DHT22;3644;53.480;10.004;2022-11-14T03:53:55;9.70;99.90
7206;DHT22;3644;53.480;10.004;2022-11-14T03:56:21;9.70;99.90
7206;DHT22;3644;53.480;10.004;2022-11-14T03:58:47;9.70;99.90
7206;DHT22;3644;53.480;10.004;2022-11-14T04:01:12;9.60;99.90
7206;DHT22;3644;53.480;10.004;2022-11-14T04:03:38;9.60;99.90
7206;DHT22;3644;53.480;10.004;2022-11-14T04:06:03;9.70;99.90
7206;DHT22;3644;53.480;10.004;2022-11-14T04:08:29;9.70;99.90
7206;DHT22;3644;53.480;10.004;2022-11-14T04:10:54;9.70;99.90
7206;DHT22;3644;53.480;10.004;2022-11-14T04:13:20;8.70;99.90
7206;DHT22;3644;53.480;10.004;2022-11-14T04:15:45;9.70;99.90
7206;DHT22;3644;53.480;10.004;2022-11-14T04:18:11;9.70;99.90
7206;DHT22;3644;53.480;10.004;2022-11-14T04:20:37;9.60;99.90
7206;DHT22;3644;53.480;10.004;2022-11-14T04:23:02;9.60;99.90
7206;DHT22;3644;53.480;10.004;2022-11-14T04:25:28;9.50;99.90
7206;DHT22;3644;53.480;10.004;2022-11-14T04:27:53;9.60;99.90
7206;DHT22;3644;53.480;10.004;2022-11-14T04:30:19;9.60;99.90
7206;DHT22;3644;53.480;10.004;2022-11-14T04:32:45;9.60;99.90
7206;DHT22;3644;53.480;10.004;2022-11-14T04:35:12;9.70;99.90
7206;DHT22;3644;53.480;10.004;2022-11-14T04:37:38;9.60;99.90
7206;DHT22;3644;53.480;10.004;2022-11-14T04:40:04;9.50;99.90
7206;DHT22;3644;53.480;10.004;2022-11-14T04:42:30;9.60;99.90
7206;DHT22;3644;53.480;10.004;2022-11-14T04:44:55;9.50;99.90
7206;DHT22;3644;53.480;10.004;2022-11-14T04:47:21;9.60;99.90
7206;DHT22;3644;53.480;10.004;2022-11-14T04:49:46;9.60;99.90
7206;DHT22;3644;53.480;10.004;2022-11-14T04:52:12;9.60;99.90
7206;DHT22;3644;53.480;10.004;2022-11-14T04:54:38;9.70;99.90
7206;DHT22;3644;53.480;10.004;2022-11-14T04:57:03;9.70;99.90
7206;DHT22;3644;53.480;10.004;2022-11-14T04:59:29;9.70;99.90
7206;DHT22;3644;53.480;10.004;2022-11-14T05:01:54;9.70;99.90
7206;DHT22;3644;53.480;10.004;2022-11-14T05:04:19;9.80;99.90
7206;DHT22;3644;53.480;10.004;2022-11-14T05:06:45;9.70;99.90
7206;DHT22;3644;53.480;10.004;2022-11-14T05:09:10;9.80;99.90
7206;DHT22;3644;53.480;10.004;2022-11-14T05:11:36;9.80;99.90
7206;DHT22;3644;53.480;10.004;2022-11-14T05:14:01;9.80;99.90
7206;DHT22;3644;53.480;10.004;2022-11-14T05:16:27;9.70;99.90
7206;DHT22;3644;53.480;10.004;2022-11-14T05:18:53;9.80;99.90
7206;DHT22;3644;53.480;10.004;2022-11-14T05:21:19;9.90;99.90
7206;DHT22;3644;53.480;10.004;2022-11-14T05:23:45;9.90;99.90
7206;DHT22;3644;53.480;10.004;2022-11-14T05:26:13;9.80;99.90
7206;DHT22;3644;53.480;10.004;2022-11-14T05:28:39;9.80;99.90
7206;DHT22;3644;53.480;10.004;2022-11-14T05:31:10;9.90;99.90
7206;DHT22;3644;53.480;10.004;2022-11-14T05:33:38;9.80;99.90
7206;DHT22;3644;53.480;10.004;2022-11-14T05:36:05;9.80;99.90
7206;DHT22;3644;53.480;10.004;2022-11-14T05:38:32;9.70;99.90
7206;DHT22;3644;53.480;10.004;2022-11-14T05:40:57;9.80;99.90
7206;DHT22;3644;53.480;10.004;2022-11-14T05:43:23;9.60;99.90
7206;DHT22;3644;53.480;10.004;2022-11-14T05:45:49;9.60;99.90
7206;DHT22;3644;53.480;10.004;2022-11-14T05:48:15;9.70;99.90
7206;DHT22;3644;53.480;10.004;2022-11-14T05:50:40;9.70;99.90
7206;DHT22;3644;53.480;10.004;2022-11-14T05:53:05;9.80;99.90
7206;DHT22;3644;53.480;10.004;2022-11-14T05:55:31;9.80;99.90
7206;DHT22;3644;53.480;10.004;2022-11-14T05:57:57;9.80;99.90
7206;DHT22;3644;53.480;10.004;2022-11-14T06:00:23;9.70;99.90
7206;DHT22;3644;53.480;10.004;2022-11-14T06:02:53;9.70;99.90
7206;DHT22;3644;53.480;10.004;2022-11-14T06:05:21;9.70;99.90
7206;DHT22;3644;53.480;10.004;2022-11-14T06:07:46;9.80;99.90
7206;DHT22;3644;53.480;10.004;2022-11-14T06:10:12;9.70;99.90
7206;DHT22;3644;53.480;10.004;2022-11-14T06:12:38;9.70;99.90
7206;DHT22;3644;53.480;10.004;2022-11-14T06:15:04;9.70;99.90
7206;DHT22;3644;53.480;10.004;2022-11-14T06:17:30;9.50;99.90
7206;DHT22;3644;53.480;10.004;2022-11-14T06:19:55;9.60;99.90
7206;DHT22;3644;53.480;10.004;2022-11-14T06:22:21;9.70;99.90
7206;DHT22;3644;53.480;10.004;2022-11-14T06:24:46;9.60;99.90
7206;DHT22;3644;53.480;10.004;2022-11-14T06:27:12;9.70;99.90
7206;DHT22;3644;53.480;10.004;2022-11-14T06:29:37;9.60;99.90
7206;DHT22;3644;53.480;10.004;2022-11-14T06:32:03;9.80;99.90
7206;DHT22;3644;53.480;10.004;2022-11-14T06:34:29;9.70;99.90
7206;DHT22;3644;53.480;10.004;2022-11-14T06:36:54;9.80;99.90
7206;DHT22;3644;53.480;10.004;2022-11-14T06:39:20;9.80;99.90
7206;DHT22;3644;53.480;10.004;2022-11-14T06:41:45;9.80;99.90
7206;DHT22;3644;53.480;10.004;2022-11-14T06:44:11;9.70;99.90
7206;DHT22;3644;53.480;10.004;2022-11-14T06:46:36;9.70;99.90
7206;DHT22;3644;53.480;10.004;2022-11-14T06:49:02;9.60;99.90
7206;DHT22;3644;53.480;10.004;2022-11-14T06:51:27;9.70;99.90
7206;DHT22;3644;53.480;10.004;2022-11-14T06:53:52;9.70;99.90
7206;DHT22;3644;53.480;10.004;2022-11-14T06:56:18;9.60;99.90
7206;DHT22;3644;53.480;10.004;2022-11-14T06:58:47;9.60;99.90
7206;DHT22;3644;53.480;10.004;2022-11-14T07:01:16;9.70;99.90
7206;DHT22;3644;53.480;10.004;2022-11-14T07:03:43;9.60;99.90
7206;DHT22;3644;53.480;10.004;2022-11-14T07:06:11;9.70;99.90
7206;DHT22;3644;53.480;10.004;2022-11-14T07:08:37;9.60;99.90
7206;DHT22;3644;53.480;10.004;2022-11-14T07:11:03;9.60;99.90
7206;DHT22;3644;53.480;10.004;2022-11-14T07:13:29;9.50;99.90
7206;DHT22;3644;53.480;10.004;2022-11-14T07:15:55;9.50;99.90
7206;DHT22;3644;53.480;10.004;2022-11-14T07:18:21;9.40;99.90
7206;DHT22;3644;53.480;10.004;2022-11-14T07:20:46;9.40;99.90
7206;DHT22;3644;53.480;10.004;2022-11-14T07:23:13;9.50;99.90
7206;DHT22;3644;53.480;10.004;2022-11-14T07:25:39;9.50;99.90
7206;DHT22;3644;53.480;10.004;2022-11-14T07:28:05;9.60;99.90
7206;DHT22;3644;53.480;10.004;2022-11-14T07:30:31;9.50;99.90
7206;DHT22;3644;53.480;10.004;2022-11-14T07:32:58;9.50;99.90
7206;DHT22;3644;53.480;10.004;2022-11-14T07:35:24;9.50;99.90
7206;DHT22;3644;53.480;10.004;2022-11-14T07:37:50;9.40;99.90
7206;DHT22;3644;53.480;10.004;2022-11-14T07:40:16;9.40;99.90
7206;DHT22;3644;53.480;10.004;2022-11-14T07:42:42;9.40;99.90
7206;DHT22;3644;53.480;10.004;2022-11-14T07:45:08;9.40;99.90
7206;DHT22;3644;53.480;10.004;2022-11-14T07:47:34;9.40;99.90
7206;DHT22;3644;53.480;10.004;2022-11-14T07:49:59;9.40;99.90
7206;DHT22;3644;53.480;10.004;2022-11-14T07:52:25;9.50;99.90
7206;DHT22;3644;53.480;10.004;2022-11-14T07:54:50;9.60;99.90
7206;DHT22;3644;53.480;10.004;2022-11-14T07:57:16;9.70;99.90
7206;DHT22;3644;53.480;10.004;2022-11-14T07:59:41;9.60;99.90
7206;DHT22;3644;53.480;10.004;2022-11-14T08:02:13;9.60;99.90
7206;DHT22;3644;53.480;10.004;2022-11-14T08:04:40;9.60;99.90
7206;DHT22;3644;53.480;10.004;2022-11-14T08:07:06;9.60;99.90
7206;DHT22;3644;53.480;10.004;2022-11-14T08:09:31;9.60;99.90
7206;DHT22;3644;53.480;10.004;2022-11-14T08:11:57;9.50;99.90
7206;DHT22;3644;53.480;10.004;2022-11-14T08:14:22;9.40;99.90
7206;DHT22;3644;53.480;10.004;2022-11-14T08:16:49;9.40;99.90
7206;DHT22;3644;53.480;10.004;2022-11-14T08:19:14;9.40;99.90
7206;DHT22;3644;53.480;10.004;2022-11-14T08:21:41;9.50;99.90
7206;DHT22;3644;53.480;10.004;2022-11-14T08:24:07;9.40;99.90
7206;DHT22;3644;53.480;10.004;2022-11-14T08:26:32;9.40;99.90
7206;DHT22;3644;53.480;10.004;2022-11-14T08:28:58;9.40;99.90
7206;DHT22;3644;53.480;10.004;2022-11-14T08:31:23;9.30;99.90
7206;DHT22;3644;53.480;10.004;2022-11-14T08:33:50;9.30;99.90
7206;DHT22;3644;53.480;10.004;2022-11-14T08:36:16;9.30;99.90
7206;DHT22;3644;53.480;10.004;2022-11-14T08:38:42;9.30;99.90
7206;DHT22;3644;53.480;10.004;2022-11-14T08:41:07;9.40;99.90
7206;DHT22;3644;53.480;10.004;2022-11-14T08:43:33;9.40;99.90
7206;DHT22;3644;53.480;10.004;2022-11-14T08:45:59;9.50;99.90
7206;DHT22;3644;53.480;10.004;2022-11-14T08:48:26;9.50;99.90
7206;DHT22;3644;53.480;10.004;2022-11-14T08:50:51;9.50;99.90
7206;DHT22;3644;53.480;10.004;2022-11-14T08:53:17;9.60;99.90
7206;DHT22;3644;53.480;10.004;2022-11-14T08:55:43;9.70;99.90
7206;DHT22;3644;53.480;10.004;2022-11-14T08:58:09;9.60;99.90
7206;DHT22;3644;53.480;10.004;2022-11-14T09:00:34;9.50;99.90
7206;DHT22;3644;53.480;10.004;2022-11-14T09:03:00;9.40;99.90
7206;DHT22;3644;53.480;10.004;2022-11-14T09:05:25;9.50;99.90
7206;DHT22;3644;53.480;10.004;2022-11-14T09:07:51;9.50;99.90
7206;DHT22;3644;53.480;10.004;2022-11-14T09:10:16;9.50;99.90
7206;DHT22;3644;53.480;10.004;2022-11-14T09:12:42;9.60;99.90
7206;DHT22;3644;53.480;10.004;2022-11-14T09:15:08;9.80;99.90
7206;DHT22;3644;53.480;10.004;2022-11-14T09:17:33;9.70;99.90
7206;DHT22;3644;53.480;10.004;2022-11-14T09:19:59;9.60;99.90
7206;DHT22;3644;53.480;10.004;2022-11-14T09:22:25;9.60;99.90
7206;DHT22;3644;53.480;10.004;2022-11-14T09:24:50;9.70;99.90
7206;DHT22;3644;53.480;10.004;2022-11-14T09:27:16;9.60;99.90
7206;DHT22;3644;53.480;10.004;2022-11-14T09:29:42;9.60;99.90
7206;DHT22;3644;53.480;10.004;2022-11-14T09:32:08;9.60;99.90
7206;DHT22;3644;53.480;10.004;2022-11-14T09:34:33;9.60;99.90
7206;DHT22;3644;53.480;10.004;2022-11-14T09:36:59;9.60;99.90
7206;DHT22;3644;53.480;10.004;2022-11-14T09:39:24;9.70;99.90
7206;DHT22;3644;53.480;10.004;2022-11-14T09:47:55;9.80;99.90
7206;DHT22;3644;53.480;10.004;2022-11-14T09:50:34;9.90;99.90
7206;DHT22;3644;53.480;10.004;2022-11-14T09:53:10;9.90;99.90
7206;DHT22;3644;53.480;10.004;2022-11-14T09:55:38;9.90;99.90
7206;DHT22;3644;53.480;10.004;2022-11-14T09:58:04;9.90;99.90
7206;DHT22;3644;53.480;10.004;2022-11-14T10:01:05;9.90;99.90
7206;DHT22;3644;53.480;10.004;2022-11-14T10:03:53;10.00;99.90
7206;DHT22;3644;53.480;10.004;2022-11-14T10:06:34;10.00;99.90
7206;DHT22;3644;53.480;10.004;2022-11-14T10:12:03;9.90;99.90
7206;DHT22;3644;53.480;10.004;2022-11-14T10:15:05;10.10;99.90
7206;DHT22;3644;53.480;10.004;2022-11-14T10:20:28;10.10;99.90
7206;DHT22;3644;53.480;10.004;2022-11-14T10:26:25;10.10;99.90
7206;DHT22;3644;53.480;10.004;2022-11-14T10:29:27;10.20;99.90
7206;DHT22;3644;53.480;10.004;2022-11-14T10:34:49;10.20;99.90
7206;DHT22;3644;53.480;10.004;2022-11-14T10:37:21;10.20;99.90
7206;DHT22;3644;53.480;10.004;2022-11-14T10:39:54;10.30;99.90
7206;DHT22;3644;53.480;10.004;2022-11-14T10:42:28;10.40;99.90
7206;DHT22;3644;53.480;10.004;2022-11-14T10:45:01;10.40;99.90
7206;DHT22;3644;53.480;10.004;2022-11-14T10:47:35;10.40;99.90
7206;DHT22;3644;53.480;10.004;2022-11-14T10:50:18;10.50;99.90
7206;DHT22;3644;53.480;10.004;2022-11-14T10:52:45;10.50;99.90
7206;DHT22;3644;53.480;10.004;2022-11-14T10:55:18;10.60;99.90
7206;DHT22;3644;53.480;10.004;2022-11-14T10:57:47;10.50;99.90
7206;DHT22;3644;53.480;10.004;2022-11-14T11:00:14;10.60;99.90
7206;DHT22;3644;53.480;10.004;2022-11-14T11:02:53;10.60;99.90
7206;DHT22;3644;53.480;10.004;2022-11-14T11:05:24;10.60;99.90
7206;DHT22;3644;53.480;10.004;2022-11-14T11:07:52;10.70;99.90
7206;DHT22;3644;53.480;10.004;2022-11-14T11:10:41;10.60;99.90
7206;DHT22;3644;53.480;10.004;2022-11-14T11:13:34;10.70;99.90
7206;DHT22;3644;53.480;10.004;2022-11-14T11:16:02;10.80;99.90
7206;DHT22;3644;53.480;10.004;2022-11-14T11:18:35;10.80;99.90
7206;DHT22;3644;53.480;10.004;2022-11-14T11:23:28;11.00;99.90
7206;DHT22;3644;53.480;10.004;2022-11-14T11:26:15;11.00;99.90
7206;DHT22;3644;53.480;10.004;2022-11-14T11:28:41;11.00;99.90
7206;DHT22;3644;53.480;10.004;2022-11-14T11:31:09;11.00;99.90
7206;DHT22;3644;53.480;10.004;2022-11-14T11:33:36;11.10;99.90
7206;DHT22;3644;53.480;10.004;2022-11-14T11:36:03;11.00;99.90
7206;DHT22;3644;53.480;10.004;2022-11-14T11:38:31;11.10;99.90
7206;DHT22;3644;53.480;10.004;2022-11-14T11:41:28;10.90;99.90
7206;DHT22;3644;53.480;10.004;2022-11-14T11:44:04;11.00;99.90
7206;DHT22;3644;53.480;10.004;2022-11-14T11:46:51;11.10;99.90
7206;DHT22;3644;53.480;10.004;2022-11-14T11:49:50;11.20;99.90
7206;DHT22;3644;53.480;10.004;2022-11-14T11:52:50;10.90;99.90
7206;DHT22;3644;53.480;10.004;2022-11-14T11:55:33;10.90;99.90
7206;DHT22;3644;53.480;10.004;2022-11-14T11:58:22;11.00;99.90
7206;DHT22;3644;53.480;10.004;2022-11-14T12:00:53;11.00;99.90
7206;DHT22;3644;53.480;10.004;2022-11-14T12:03:23;11.10;99.90
7206;DHT22;3644;53.480;10.004;2022-11-14T12:08:47;11.10;99.90
7206;DHT22;3644;53.480;10.004;2022-11-14T12:11:18;11.10;99.90
7206;DHT22;3644;53.480;10.004;2022-11-14T12:16:30;11.30;99.90
7206;DHT22;3644;53.480;10.004;2022-11-14T12:30:06;11.60;99.90
7206;DHT22;3644;53.480;10.004;2022-11-14T12:32:41;11.60;99.90
7206;DHT22;3644;53.480;10.004;2022-11-14T12:35:16;11.60;99.90
7206;DHT22;3644;53.480;10.004;2022-11-14T12:37:46;11.70;99.90
7206;DHT22;3644;53.480;10.004;2022-11-14T12:40:31;11.60;99.90
7206;DHT22;3644;53.480;10.004;2022-11-14T12:42:58;11.70;99.90
7206;DHT22;3644;53.480;10.004;2022-11-14T12:50:47;11.80;99.90
7206;DHT22;3644;53.480;10.004;2022-11-14T12:56:40;11.70;99.90
7206;DHT22;3644;53.480;10.004;2022-11-14T12:59:27;11.70;99.90
7206;DHT22;3644;53.480;10.004;2022-11-14T13:04:52;11.80;99.90
7206;DHT22;3644;53.480;10.004;2022-11-14T13:10:43;11.90;99.90
7206;DHT22;3644;53.480;10.004;2022-11-14T13:13:10;11.90;99.90
7206;DHT22;3644;53.480;10.004;2022-11-14T13:15:56;11.90;99.90
7206;DHT22;3644;53.480;10.004;2022-11-14T13:19:00;11.90;99.90
7206;DHT22;3644;53.480;10.004;2022-11-14T13:27:32;11.60;99.90
7206;DHT22;3644;53.480;10.004;2022-11-14T13:29:58;11.70;99.90
7206;DHT22;3644;53.480;10.004;2022-11-14T13:41:25;11.80;99.90
7206;DHT22;3644;53.480;10.004;2022-11-14T13:44:05;11.90;99.90
7206;DHT22;3644;53.480;10.004;2022-11-14T13:52:30;11.80;99.90
7206;DHT22;3644;53.480;10.004;2022-11-14T13:54:56;11.70;99.90
7206;DHT22;3644;53.480;10.004;2022-11-14T13:57:51;11.80;99.90
7206;DHT22;3644;53.480;10.004;2022-11-14T14:00:20;11.80;99.90
7206;DHT22;3644;53.480;10.004;2022-11-14T14:03:06;11.80;99.90
7206;DHT22;3644;53.480;10.004;2022-11-14T14:06:00;11.70;99.90
7206;DHT22;3644;53.480;10.004;2022-11-14T14:08:56;11.60;99.90
7206;DHT22;3644;53.480;10.004;2022-11-14T14:16:49;11.60;99.90
7206;DHT22;3644;53.480;10.004;2022-11-14T14:21:57;11.60;99.90
7206;DHT22;3644;53.480;10.004;2022-11-14T14:24:38;11.60;99.90
7206;DHT22;3644;53.480;10.004;2022-11-14T14:27:35;11.60;99.90
7206;DHT22;3644;53.480;10.004;2022-11-14T14:30:13;11.50;99.90
7206;DHT22;3644;53.480;10.004;2022-11-14T14:32:40;11.60;99.90
7206;DHT22;3644;53.480;10.004;2022-11-14T14:35:28;11.60;99.90
7206;DHT22;3644;53.480;10.004;2022-11-14T14:37:55;11.60;99.90
7206;DHT22;3644;53.480;10.004;2022-11-14T14:40:27;11.50;99.90
7206;DHT22;3644;53.480;10.004;2022-11-14T14:42:54;11.60;99.90
7206;DHT22;3644;53.480;10.004;2022-11-14T14:45:23;11.50;99.90
7206;DHT22;3644;53.480;10.004;2022-11-14T14:47:57;11.50;99.90
7206;DHT22;3644;53.480;10.004;2022-11-14T14:50:30;11.40;99.90
7206;DHT22;3644;53.480;10.004;2022-11-14T14:52:59;11.40;99.90
7206;DHT22;3644;53.480;10.004;2022-11-14T14:55:28;11.30;99.90
7206;DHT22;3644;53.480;10.004;2022-11-14T14:57:54;11.40;99.90
7206;DHT22;3644;53.480;10.004;2022-11-14T15:00:24;11.40;99.90
7206;DHT22;3644;53.480;10.004;2022-11-14T15:02:54;11.30;99.90
7206;DHT22;3644;53.480;10.004;2022-11-14T15:05:24;11.30;99.90
7206;DHT22;3644;53.480;10.004;2022-11-14T15:07:52;11.30;99.90
7206;DHT22;3644;53.480;10.004;2022-11-14T15:10:21;11.20;99.90
7206;DHT22;3644;53.480;10.004;2022-11-14T15:12:48;11.20;99.90
7206;DHT22;3644;53.480;10.004;2022-11-14T15:15:15;11.20;99.90
7206;DHT22;3644;53.480;10.004;2022-11-14T15:17:43;11.20;99.90
7206;DHT22;3644;53.480;10.004;2022-11-14T15:23:16;11.00;99.90
7206;DHT22;3644;53.480;10.004;2022-11-14T15:25:43;11.00;99.90
7206;DHT22;3644;53.480;10.004;2022-11-14T15:28:16;10.90;99.90
7206;DHT22;3644;53.480;10.004;2022-11-14T15:30:56;10.90;99.90
7206;DHT22;3644;53.480;10.004;2022-11-14T15:33:33;10.90;99.90
7206;DHT22;3644;53.480;10.004;2022-11-14T15:36:11;10.80;99.90
7206;DHT22;3644;53.480;10.004;2022-11-14T15:38:37;10.80;99.90
7206;DHT22;3644;53.480;10.004;2022-11-14T15:41:17;10.80;99.90
7206;DHT22;3644;53.480;10.004;2022-11-14T15:49:18;10.70;99.90
7206;DHT22;3644;53.480;10.004;2022-11-14T15:51:51;10.70;99.90
7206;DHT22;3644;53.480;10.004;2022-11-14T15:54:31;10.60;99.90
7206;DHT22;3644;53.480;10.004;2022-11-14T15:57:07;10.50;99.90
7206;DHT22;3644;53.480;10.004;2022-11-14T15:59:36;10.40;99.90
7206;DHT22;3644;53.480;10.004;2022-11-14T16:02:13;10.40;99.90
7206;DHT22;3644;53.480;10.004;2022-11-14T16:04:40;10.40;99.90
7206;DHT22;3644;53.480;10.004;2022-11-14T16:07:05;10.40;99.90
7206;DHT22;3644;53.480;10.004;2022-11-14T16:09:31;10.40;99.90
7206;DHT22;3644;53.480;10.004;2022-11-14T16:11:56;10.30;99.90
7206;DHT22;3644;53.480;10.004;2022-11-14T16:14:22;10.20;99.90
7206;DHT22;3644;53.480;10.004;2022-11-14T16:16:47;10.20;99.90
7206;DHT22;3644;53.480;10.004;2022-11-14T16:19:14;10.30;99.90
7206;DHT22;3644;53.480;10.004;2022-11-14T16:21:40;10.20;99.90
7206;DHT22;3644;53.480;10.004;2022-11-14T16:24:12;10.20;99.90
7206;DHT22;3644;53.480;10.004;2022-11-14T16:26:38;10.20;99.90
7206;DHT22;3644;53.480;10.004;2022-11-14T16:29:05;10.10;99.90
7206;DHT22;3644;53.480;10.004;2022-11-14T16:31:31;10.10;99.90
7206;DHT22;3644;53.480;10.004;2022-11-14T16:33:57;10.00;99.90
7206;DHT22;3644;53.480;10.004;2022-11-14T16:36:22;10.00;99.90
7206;DHT22;3644;53.480;10.004;2022-11-14T16:38:48;10.00;99.90
7206;DHT22;3644;53.480;10.004;2022-11-14T16:41:14;10.00;99.90
7206;DHT22;3644;53.480;10.004;2022-11-14T16:43:40;10.00;99.90
7206;DHT22;3644;53.480;10.004;2022-11-14T16:46:06;9.90;99.90
7206;DHT22;3644;53.480;10.004;2022-11-14T16:48:32;10.00;99.90
7206;DHT22;3644;53.480;10.004;2022-11-14T16:51:02;10.00;99.90
7206;DHT22;3644;53.480;10.004;2022-11-14T16:53:28;9.90;99.90
7206;DHT22;3644;53.480;10.004;2022-11-14T16:55:54;9.80;99.90
7206;DHT22;3644;53.480;10.004;2022-11-14T16:58:19;9.90;99.90
7206;DHT22;3644;53.480;10.004;2022-11-14T17:00:45;9.90;99.90
7206;DHT22;3644;53.480;10.004;2022-11-14T17:03:10;9.90;99.90
7206;DHT22;3644;53.480;10.004;2022-11-14T17:05:47;9.90;99.90
7206;DHT22;3644;53.480;10.004;2022-11-14T17:08:13;9.90;99.90
7206;DHT22;3644;53.480;10.004;2022-11-14T17:10:43;9.90;99.90
7206;DHT22;3644;53.480;10.004;2022-11-14T17:13:09;9.90;99.90
7206;DHT22;3644;53.480;10.004;2022-11-14T17:15:35;9.90;99.90
7206;DHT22;3644;53.480;10.004;2022-11-14T17:18:01;9.90;99.90
7206;DHT22;3644;53.480;10.004;2022-11-14T17:20:27;9.90;99.90
7206;DHT22;3644;53.480;10.004;2022-11-14T17:22:52;9.80;99.90
7206;DHT22;3644;53.480;10.004;2022-11-14T17:25:18;9.80;99.90
7206;DHT22;3644;53.480;10.004;2022-11-14T17:27:43;9.90;99.90
7206;DHT22;3644;53.480;10.004;2022-11-14T17:30:12;9.90;99.90
7206;DHT22;3644;53.480;10.004;2022-11-14T17:32:37;9.90;99.90
7206;DHT22;3644;53.480;10.004;2022-11-14T17:35:03;9.80;99.90
7206;DHT22;3644;53.480;10.004;2022-11-14T17:37:29;9.80;99.90
7206;DHT22;3644;53.480;10.004;2022-11-14T17:39:54;9.70;99.90